createdAt,value
2022-11-15T00:00:19.845Z,14.95
2022-11-15T00:05:22.344Z,14.40
2022-11-15T00:10:24.354Z,14.63
2022-11-15T00:15:26.367Z,14.50
2022-11-15T00:20:28.491Z,14.23
2022-11-15T00:25:30.549Z,14.07
2022-11-15T00:30:33.054Z,14.57
2022-11-15T00:35:36.002Z,14.32
2022-11-15T00:40:38.018Z,14.70
2022-11-15T00:45:40.002Z,13.23
2022-11-15T00:50:42.002Z,14.82
2022-11-15T00:55:44.055Z,13.90
2022-11-15T01:00:46.192Z,14.45
2022-11-15T01:05:48.231Z,13.70
2022-11-15T01:10:50.228Z,13.50
2022-11-15T01:15:52.280Z,13.45
2022-11-15T01:20:55.672Z,13.17
2022-11-15T01:26:02.778Z,12.43
2022-11-15T01:31:07.725Z,13.37
2022-11-15T01:36:13.965Z,12.57
2022-11-15T01:41:22.135Z,12.68
2022-11-15T01:46:36.848Z,14.00
2022-11-15T01:51:39.177Z,12.85
2022-11-15T01:56:51.947Z,13.50
2022-11-15T02:01:54.325Z,14.30
2022-11-15T02:06:56.853Z,15.30
2022-11-15T02:12:00.630Z,15.30
2022-11-15T02:17:10.047Z,14.65
2022-11-15T02:22:49.837Z,14.07
2022-11-15T02:28:11.671Z,13.90
2022-11-15T02:33:26.735Z,13.88
2022-11-15T02:38:50.316Z,14.87
2022-11-15T02:44:04.610Z,13.98
2022-11-15T02:49:06.850Z,13.50
2022-11-15T02:54:13.563Z,13.55
2022-11-15T02:59:21.185Z,14.20
2022-11-15T03:04:41.984Z,13.50
2022-11-15T03:09:49.856Z,13.35
2022-11-15T03:15:30.328Z,13.10
2022-11-15T04:13:34.357Z,12.20
2022-11-15T04:18:36.617Z,12.45
2022-11-15T04:23:57.268Z,11.55
2022-11-15T04:29:18.033Z,12.63
2022-11-15T04:34:20.047Z,10.98
2022-11-15T04:39:22.142Z,11.87
2022-11-15T04:44:24.149Z,11.68
2022-11-15T04:49:26.198Z,12.25
2022-11-15T04:54:28.381Z,10.93
2022-11-15T04:59:30.462Z,12.37
2022-11-15T05:04:32.489Z,11.70
2022-11-15T05:09:34.482Z,11.85
2022-11-15T05:14:36.565Z,11.25
2022-11-15T05:19:39.466Z,11.93
2022-11-15T05:24:41.545Z,12.57
2022-11-15T05:29:43.561Z,12.50
2022-11-15T05:34:46.553Z,12.30
2022-11-15T05:39:48.589Z,11.75
2022-11-15T05:44:50.922Z,12.37
2022-11-15T05:49:54.511Z,12.65
2022-11-15T05:54:58.960Z,12.50
2022-11-15T06:00:01.489Z,12.63
2022-11-15T06:05:04.319Z,12.88
2022-11-15T06:10:06.930Z,14.20
2022-11-15T06:15:09.617Z,14.07
2022-11-15T06:20:12.045Z,13.80
2022-11-15T06:25:14.092Z,14.18
2022-11-15T06:30:16.236Z,14.60
2022-11-15T06:35:18.717Z,13.30
2022-11-15T06:40:20.747Z,14.73
2022-11-15T06:45:22.775Z,17.40
2022-11-15T06:50:25.127Z,14.50
2022-11-15T06:55:27.184Z,14.93
2022-11-15T07:00:29.281Z,14.67
2022-11-15T07:05:31.765Z,15.60
2022-11-15T07:10:33.792Z,15.17
2022-11-15T07:15:35.840Z,16.08
2022-11-15T07:20:37.936Z,16.92
2022-11-15T07:25:39.983Z,16.10
2022-11-15T07:30:45.190Z,16.67
2022-11-15T07:35:50.258Z,16.97
2022-11-15T07:40:58.674Z,15.43
2022-11-15T07:46:06.486Z,16.92
2022-11-15T07:51:16.013Z,17.27
2022-11-15T07:56:18.060Z,17.05
2022-11-15T08:01:20.356Z,17.90
2022-11-15T08:06:22.441Z,17.27
2022-11-15T08:11:24.531Z,17.42
2022-11-15T08:16:26.617Z,18.03
2022-11-15T08:21:28.712Z,17.35
2022-11-15T08:26:31.076Z,16.77
2022-11-15T08:31:33.206Z,18.67
2022-11-15T08:36:43.250Z,17.58
2022-11-15T08:41:48.073Z,19.73
2022-11-15T08:46:50.124Z,22.73
2022-11-15T08:51:52.138Z,19.80
2022-11-15T08:56:54.334Z,19.20
2022-11-15T09:01:56.433Z,21.85
2022-11-15T09:06:58.850Z,19.97
2022-11-15T09:12:02.763Z,20.37
2022-11-15T09:17:09.583Z,20.33
2022-11-15T09:22:11.700Z,21.10
2022-11-15T09:27:14.337Z,21.12
2022-11-15T09:32:16.356Z,21.37
2022-11-15T09:37:18.382Z,21.90
2022-11-15T09:42:26.042Z,22.97
2022-11-15T09:47:53.276Z,22.87
2022-11-15T09:52:56.578Z,22.02
2022-11-15T09:58:19.858Z,22.67
2022-11-15T10:03:35.948Z,23.15
2022-11-15T10:09:02.429Z,22.13
2022-11-15T10:14:18.129Z,22.62
2022-11-15T10:19:29.190Z,20.55
2022-11-15T10:24:36.532Z,20.77
2022-11-15T10:29:44.466Z,21.55
2022-11-15T10:34:47.757Z,20.97
2022-11-15T10:40:05.206Z,21.90
2022-11-15T10:45:29.948Z,21.87
2022-11-15T10:50:33.693Z,23.20
2022-11-15T10:55:36.202Z,22.13
2022-11-15T11:00:42.752Z,21.10
2022-11-15T11:05:45.050Z,21.37
2022-11-15T11:11:02.635Z,21.98
2022-11-15T11:16:42.257Z,20.80
2022-11-15T11:22:06.298Z,21.62
2022-11-15T11:27:22.770Z,22.87
2022-11-15T11:32:45.479Z,21.70
2022-11-15T11:43:05.581Z,20.87
2022-11-15T11:48:14.875Z,21.75
2022-11-15T11:53:54.301Z,21.27
2022-11-15T11:59:03.293Z,21.40
2022-11-15T12:04:31.773Z,21.35
2022-11-15T12:09:47.285Z,23.27
2022-11-15T12:15:12.075Z,21.33
2022-11-15T12:20:21.136Z,21.03
2022-11-15T12:25:34.532Z,19.33
2022-11-15T12:30:46.869Z,21.05
2022-11-15T12:35:59.959Z,19.03
2022-11-15T12:41:14.049Z,20.65
2022-11-15T12:46:31.397Z,22.03
2022-11-15T12:51:48.458Z,22.58
2022-11-15T12:57:08.566Z,23.02
2022-11-15T13:02:25.933Z,21.93
2022-11-15T13:07:36.922Z,23.20
2022-11-15T13:12:45.132Z,23.43
2022-11-15T13:17:52.310Z,25.90
2022-11-15T13:23:06.175Z,24.35
2022-11-15T13:28:21.183Z,25.17
2022-11-15T13:33:26.061Z,26.15
2022-11-15T13:38:34.323Z,24.33
2022-11-15T13:43:37.171Z,29.33
2022-11-15T13:48:40.400Z,24.55
2022-11-15T13:53:47.604Z,25.40
2022-11-15T13:58:49.939Z,22.65
2022-11-15T14:03:58.882Z,20.93
2022-11-15T14:09:25.960Z,21.08
2022-11-15T14:14:30.026Z,20.60
2022-11-15T14:19:32.857Z,20.77
2022-11-15T14:24:34.898Z,22.65
2022-11-15T14:29:36.888Z,22.87
2022-11-15T14:34:38.960Z,20.65
2022-11-15T14:39:40.971Z,21.70
2022-11-15T14:44:46.088Z,21.57
2022-11-15T14:49:48.498Z,21.80
2022-11-15T14:54:50.561Z,21.00
2022-11-15T14:59:52.930Z,19.80
2022-11-15T15:04:55.405Z,18.65
2022-11-15T15:10:24.465Z,18.37
2022-11-15T15:15:25.402Z,18.20
2022-11-15T15:20:28.341Z,17.90
2022-11-15T15:25:34.042Z,17.98
2022-11-15T15:30:36.079Z,19.17
2022-11-15T15:35:38.178Z,18.93
2022-11-15T15:40:40.322Z,17.10
2022-11-15T15:45:42.975Z,16.97
2022-11-15T15:50:45.187Z,18.30
2022-11-15T15:55:47.200Z,16.85
2022-11-15T16:00:49.253Z,16.50
2022-11-15T16:05:51.928Z,18.00
2022-11-15T16:10:54.020Z,15.47
2022-11-15T16:15:56.286Z,16.62
2022-11-15T16:20:58.353Z,16.20
2022-11-15T16:26:01.423Z,17.70
2022-11-15T16:31:06.458Z,16.52
2022-11-15T16:36:29.540Z,19.07
2022-11-15T16:41:32.325Z,18.87
2022-11-15T16:46:34.369Z,18.15
2022-11-15T16:51:36.399Z,17.93
2022-11-15T16:56:39.197Z,18.02
2022-11-15T17:01:46.798Z,19.37
2022-11-15T17:06:49.727Z,18.87
2022-11-15T17:11:52.760Z,18.02
2022-11-15T17:16:57.842Z,18.97
2022-11-15T17:21:59.877Z,19.52
2022-11-15T17:27:01.897Z,20.47
2022-11-15T17:32:03.990Z,21.42
2022-11-15T17:37:06.043Z,20.40
2022-11-15T17:42:08.128Z,20.57
2022-11-15T17:47:10.148Z,22.98
2022-11-15T17:52:12.180Z,22.60
2022-11-15T17:57:14.193Z,20.10
2022-11-15T18:02:16.226Z,20.02
2022-11-15T18:07:18.328Z,21.67
2022-11-15T18:12:20.359Z,22.62
2022-11-15T18:17:23.828Z,21.30
2022-11-15T18:22:25.894Z,22.55
2022-11-15T18:27:27.932Z,22.30
2022-11-15T18:32:29.924Z,21.63
2022-11-15T18:37:32.010Z,21.45
2022-11-15T18:42:34.044Z,21.20
2022-11-15T18:47:37.616Z,21.37
2022-11-15T18:52:39.636Z,21.80
2022-11-15T18:57:41.723Z,23.97
2022-11-15T19:02:43.767Z,23.23
2022-11-15T19:07:48.897Z,20.97
2022-11-15T19:12:50.987Z,21.30
2022-11-15T19:17:54.375Z,22.73
2022-11-15T19:22:56.420Z,22.23
2022-11-15T19:27:58.450Z,23.83
2022-11-15T19:33:00.465Z,22.10
2022-11-15T19:38:02.535Z,22.02
2022-11-15T19:43:04.669Z,21.52
2022-11-15T19:48:06.848Z,21.53
2022-11-15T19:53:08.883Z,22.73
2022-11-15T19:58:10.900Z,22.60
2022-11-15T20:03:12.970Z,24.58
2022-11-15T20:08:15.061Z,20.92
2022-11-15T20:13:17.093Z,22.40
2022-11-15T20:18:20.314Z,22.08
2022-11-15T20:23:22.695Z,23.73
2022-11-15T20:28:27.015Z,24.40
2022-11-15T20:33:29.183Z,23.10
2022-11-15T20:38:31.383Z,22.23
2022-11-15T20:43:33.793Z,22.62
2022-11-15T20:48:36.336Z,21.77
2022-11-15T20:53:39.083Z,21.40
2022-11-15T20:58:42.538Z,21.10
2022-11-15T21:03:44.650Z,20.13
2022-11-15T21:09:11.705Z,21.20
2022-11-15T21:14:13.814Z,20.60
2022-11-15T21:19:15.997Z,21.25
2022-11-15T21:24:20.025Z,21.58
2022-11-15T21:29:22.255Z,20.37
2022-11-15T21:34:24.289Z,21.52
2022-11-15T21:39:26.379Z,20.50
2022-11-15T21:44:28.802Z,22.00
2022-11-15T21:49:31.071Z,20.35
2022-11-15T21:54:33.290Z,20.90
2022-11-15T21:59:55.500Z,21.00
2022-11-15T22:04:57.602Z,21.93
2022-11-15T22:09:59.650Z,21.77
2022-11-15T22:15:04.207Z,21.42
2022-11-15T22:20:23.145Z,20.67
2022-11-15T22:25:29.377Z,20.12
2022-11-15T22:30:31.452Z,20.37
2022-11-15T22:35:36.587Z,19.30
2022-11-15T22:40:39.277Z,20.37
2022-11-15T22:46:07.372Z,20.17
2022-11-15T22:51:09.883Z,20.98
2022-11-15T22:56:15.117Z,21.07
2022-11-15T23:01:22.277Z,20.42
2022-11-15T23:06:24.546Z,21.77
2022-11-15T23:11:45.193Z,21.77
2022-11-15T23:16:47.218Z,21.60
2022-11-15T23:22:07.919Z,22.07
2022-11-15T23:27:10.476Z,21.37
2022-11-15T23:32:31.212Z,21.42
2022-11-15T23:37:33.450Z,22.50
2022-11-15T23:42:35.590Z,21.25
2022-11-15T23:47:37.612Z,21.40
2022-11-15T23:52:39.653Z,20.88
2022-11-15T23:57:41.695Z,21.27
